<?xml version='1.0' encoding='UTF-8'?>
<gpx xmlns="http://www.topografix.com/GPX/1/1" creator="www.balnam.be" version="1.1" xmlns:xsi="http://www.w3.org/2001/XMLSchema-instance" xsi:schemaLocation="http://www.topografix.com/GPX/1/1 http://www.topografix.com/GPX/1/1/gpx.xsd">
<trk>
<name>lsrbcLv725</name>
<cmt>s</cmt>
<desc>Boncelles Chemin n°Lv725 Rue de la Fontaine Domalus</desc>
<link href="https://chemins.be/boncelles/chemin/Lv725"/><trkseg>
<trkpt lat="50.582157" lon="5.537721"><time>2026-05-02T17:08:29Z</time></trkpt>
<trkpt lat="50.580363" lon="5.539201"><time>2026-05-02T17:18:29Z</time></trkpt>
</trkseg></trk>
<trk>
<name>lsrbcLv725</name>
<cmt>v</cmt>
<desc>Boncelles Chemin n°Lv725 Rue de la Fontaine Domalus</desc>
<link href="https://chemins.be/boncelles/chemin/Lv725"/><trkseg>
<trkpt lat="50.580363" lon="5.539201"><time>2026-05-02T17:18:29Z</time></trkpt>
<trkpt lat="50.579652" lon="5.541358"><time>2026-05-02T17:28:29Z</time></trkpt>
<trkpt lat="50.579230" lon="5.542071"><time>2026-05-02T17:38:29Z</time></trkpt>
<trkpt lat="50.578579" lon="5.542710"><time>2026-05-02T17:48:29Z</time></trkpt>
<trkpt lat="50.577891" lon="5.543037"><time>2026-05-02T17:58:29Z</time></trkpt>
<trkpt lat="50.577063" lon="5.542919"><time>2026-05-02T18:08:29Z</time></trkpt>
<trkpt lat="50.576280" lon="5.542345"><time>2026-05-02T18:18:29Z</time></trkpt>
<trkpt lat="50.575053" lon="5.540462"><time>2026-05-02T18:28:29Z</time></trkpt>
<trkpt lat="50.574065" lon="5.538960"><time>2026-05-02T18:38:29Z</time></trkpt>
<trkpt lat="50.573725" lon="5.537801"><time>2026-05-02T18:48:29Z</time></trkpt>
<trkpt lat="50.573432" lon="5.535511"><time>2026-05-02T18:58:29Z</time></trkpt>
<trkpt lat="50.573298" lon="5.535364"><time>2026-05-02T19:08:29Z</time></trkpt>
<trkpt lat="50.573218" lon="5.534681"><time>2026-05-02T19:18:29Z</time></trkpt>
<trkpt lat="50.572866" lon="5.534373"><time>2026-05-02T19:28:29Z</time></trkpt>
<trkpt lat="50.572730" lon="5.534159"><time>2026-05-02T19:38:29Z</time></trkpt>
<trkpt lat="50.572239" lon="5.534220"><time>2026-05-02T19:48:29Z</time></trkpt>
<trkpt lat="50.571962" lon="5.534391"><time>2026-05-02T19:58:29Z</time></trkpt>
<trkpt lat="50.571801" lon="5.534656"><time>2026-05-02T20:08:29Z</time></trkpt>
<trkpt lat="50.570452" lon="5.535572"><time>2026-05-02T20:18:29Z</time></trkpt>
<trkpt lat="50.570372" lon="5.535786"><time>2026-05-02T20:28:29Z</time></trkpt>
<trkpt lat="50.569228" lon="5.536162"><time>2026-05-02T20:38:29Z</time></trkpt>
<trkpt lat="50.567998" lon="5.536787"><time>2026-05-02T20:48:29Z</time></trkpt>
<trkpt lat="50.564933" lon="5.538379"><time>2026-05-02T20:58:29Z</time></trkpt>
<trkpt lat="50.563832" lon="5.538998"><time>2026-05-02T21:08:29Z</time></trkpt>
<trkpt lat="50.562831" lon="5.539241"><time>2026-05-02T21:18:29Z</time></trkpt>
<trkpt lat="50.562516" lon="5.539184"><time>2026-05-02T21:28:29Z</time></trkpt>
</trkseg>
</trk>
</gpx>